Heat Index [SAI AWOS/ASOS Display]_________FAA Disclaimer: "Not for use in aviation at this time______________" Untitled Document
Auglaize County Neil Armstrong Airport (AXV)
250
16:44
17/02/19
06
N/A
N/A
30.08
N/A
912
55(F), 13(C)
42(F), 6(C)
54 F
62%
CLR
5
Haze
N/A
N/A
16:44 zulu Wind 250 at 06 Knots, Altimeter 30.08
METAR KAXV 191644Z AUTO 25006KT 5SM HZ CLR 13/06 A3008 A02
METAR:
FAA Disclaimer--Advisory Use ONLY, not for flight info-- 3/04/2009: Welcome to the Neil Armstong AXV Graphical AWOS Display, if you find this information useful, please call the airport manager at 419-753-2810. New URL for AWOS smartphone display is http://www.saiawos2.com/AXV
INFO:
Wind Direction:
Wind Speed:
Wind Gust:
Wind Variable:
Altimeter:
Dens Alt:
Elev:
Temp:
Dwpt:
Wind Chill
Rel Humidity:
Ceiling:
Visibility:
Prsnt Wea:
PCPN:
Remarks:
How to read the WebPage